createdAt,value
2019-03-23T00:01:29.518Z,14.80
2019-03-23T00:03:57.641Z,15.97
2019-03-23T00:06:30.836Z,16.07
2019-03-23T00:08:55.701Z,15.77
2019-03-23T00:11:23.716Z,15.40
2019-03-23T00:13:51.810Z,17.17
2019-03-23T00:16:20.032Z,16.27
2019-03-23T00:18:48.073Z,15.90
2019-03-23T00:21:16.130Z,16.27
2019-03-23T00:23:44.432Z,16.10
2019-03-23T00:26:13.405Z,16.80
2019-03-23T00:28:41.710Z,13.40
2019-03-23T00:31:09.706Z,14.30
2019-03-23T00:33:37.872Z,14.80
2019-03-23T00:36:05.966Z,13.50
2019-03-23T00:38:33.983Z,16.70
2019-03-23T00:41:01.995Z,14.97
2019-03-23T00:43:30.087Z,15.03
2019-03-23T00:45:58.440Z,16.17
2019-03-23T00:48:26.632Z,14.73
2019-03-23T00:50:54.643Z,15.90
2019-03-23T00:53:22.717Z,15.30
2019-03-23T00:55:50.710Z,16.70
2019-03-23T00:58:18.916Z,16.17
2019-03-23T01:00:47.204Z,15.40
2019-03-23T01:03:15.335Z,15.73
2019-03-23T01:05:43.479Z,14.50
2019-03-23T01:08:11.818Z,16.00
2019-03-23T01:10:39.806Z,16.40
2019-03-23T01:13:08.144Z,17.10
2019-03-23T01:15:36.405Z,15.27
2019-03-23T01:18:04.482Z,15.10
2019-03-23T01:20:32.935Z,16.37
2019-03-23T01:23:00.908Z,14.17
2019-03-23T01:25:28.984Z,14.97
2019-03-23T01:27:57.029Z,12.83
2019-03-23T01:30:25.338Z,15.13
2019-03-23T01:32:53.329Z,15.20
2019-03-23T01:35:21.377Z,13.90
2019-03-23T01:37:49.734Z,16.67
2019-03-23T01:40:17.724Z,14.50
2019-03-23T01:42:45.894Z,13.37
2019-03-23T01:45:14.345Z,13.60
2019-03-23T01:47:42.497Z,14.73
2019-03-23T01:50:10.722Z,13.10
2019-03-23T01:52:38.665Z,13.67
2019-03-23T01:55:07.788Z,13.80
2019-03-23T01:57:35.765Z,12.90
2019-03-23T02:00:05.053Z,12.73
2019-03-23T02:02:33.453Z,14.00
2019-03-23T02:05:01.616Z,13.87
2019-03-23T02:07:30.786Z,14.10
2019-03-23T02:09:58.778Z,15.07
2019-03-23T02:12:26.857Z,14.40
2019-03-23T02:14:54.879Z,14.67
2019-03-23T02:17:23.064Z,14.33
2019-03-23T02:19:51.130Z,14.03
2019-03-23T02:22:19.379Z,14.20
2019-03-23T02:24:47.360Z,13.40
2019-03-23T02:27:15.447Z,14.67
2019-03-23T02:29:43.630Z,13.90
2019-03-23T02:32:11.754Z,11.97
2019-03-23T02:34:39.930Z,15.60
2019-03-23T02:37:08.205Z,16.37
2019-03-23T02:39:36.856Z,14.87
2019-03-23T02:42:05.124Z,14.53
2019-03-23T02:44:33.205Z,14.10
2019-03-23T02:47:01.348Z,12.33
2019-03-23T02:49:29.529Z,12.73
2019-03-23T02:51:57.545Z,11.60
2019-03-23T02:54:25.549Z,11.70
2019-03-23T02:56:53.615Z,13.63
2019-03-23T02:59:21.602Z,12.93
2019-03-23T03:01:49.605Z,13.73
2019-03-23T03:04:17.626Z,14.93
2019-03-23T03:06:45.776Z,13.43
2019-03-23T03:09:13.866Z,14.27
2019-03-23T03:11:42.001Z,14.03
2019-03-23T03:14:09.990Z,14.93
2019-03-23T03:16:37.995Z,14.50
2019-03-23T03:19:06.209Z,15.60
2019-03-23T03:21:34.418Z,13.50
2019-03-23T03:24:02.440Z,12.20
2019-03-23T03:26:30.437Z,13.37
2019-03-23T03:28:58.462Z,13.10
2019-03-23T03:31:26.494Z,12.90
2019-03-23T03:33:54.615Z,13.63
2019-03-23T03:36:23.932Z,13.97
2019-03-23T03:38:52.090Z,15.40
2019-03-23T03:41:20.206Z,13.60
2019-03-23T03:43:48.268Z,14.43
2019-03-23T03:46:16.390Z,13.87
2019-03-23T03:48:45.452Z,13.60
2019-03-23T03:51:13.487Z,12.60
2019-03-23T03:53:41.486Z,14.70
2019-03-23T03:56:09.935Z,13.97
2019-03-23T03:58:37.924Z,13.60
2019-03-23T04:01:16.842Z,13.50
2019-03-23T04:03:44.831Z,13.57
2019-03-23T04:06:12.848Z,13.73
2019-03-23T04:08:40.806Z,14.60
2019-03-23T04:11:08.916Z,14.07
2019-03-23T04:13:36.987Z,13.60
2019-03-23T04:16:05.083Z,13.80
2019-03-23T04:18:33.068Z,14.17
2019-03-23T04:21:01.178Z,12.47
2019-03-23T04:23:29.173Z,13.80
2019-03-23T04:25:57.220Z,12.90
2019-03-23T04:28:25.339Z,12.80
2019-03-23T04:30:53.401Z,15.23
2019-03-23T04:33:21.439Z,12.10
2019-03-23T04:35:49.468Z,12.87
2019-03-23T04:38:22.462Z,14.10
2019-03-23T04:40:47.533Z,12.80
2019-03-23T04:43:15.594Z,14.57
2019-03-23T04:45:44.258Z,14.47
2019-03-23T04:48:12.297Z,12.80
2019-03-23T04:50:40.450Z,12.47
2019-03-23T04:53:08.568Z,13.90
2019-03-23T04:55:37.468Z,14.90
2019-03-23T04:58:05.464Z,14.50
2019-03-23T05:00:33.656Z,14.27
2019-03-23T05:03:01.815Z,13.90
2019-03-23T05:05:29.858Z,13.80
2019-03-23T05:07:58.271Z,14.40
2019-03-23T05:10:26.262Z,14.20
2019-03-23T05:12:54.419Z,13.90
2019-03-23T05:15:22.699Z,13.20
2019-03-23T05:17:50.842Z,15.20
2019-03-23T05:20:29.121Z,14.83
2019-03-23T05:22:57.348Z,13.73
2019-03-23T05:25:25.905Z,13.27
2019-03-23T05:27:53.898Z,13.27
2019-03-23T05:30:22.040Z,16.50
2019-03-23T05:32:51.494Z,16.30
2019-03-23T05:35:19.852Z,15.07
2019-03-23T05:37:48.006Z,14.07
2019-03-23T05:40:15.990Z,14.90
2019-03-23T05:42:44.205Z,14.07
2019-03-23T05:45:14.486Z,16.60
2019-03-23T05:47:43.030Z,16.33
2019-03-23T05:50:11.342Z,16.10
2019-03-23T05:52:40.050Z,16.80
2019-03-23T05:55:09.271Z,18.10
2019-03-23T05:57:37.739Z,17.60
2019-03-23T06:00:06.506Z,16.33
2019-03-23T06:02:35.699Z,17.20
2019-03-23T06:05:04.411Z,14.70
2019-03-23T06:07:33.112Z,14.40
2019-03-23T06:10:01.215Z,16.10
2019-03-23T06:12:29.181Z,15.73
2019-03-23T06:14:57.167Z,15.57
2019-03-23T06:17:25.126Z,14.70
2019-03-23T06:19:53.338Z,14.27
2019-03-23T06:22:21.311Z,14.20
2019-03-23T06:24:49.360Z,12.27
2019-03-23T06:27:17.525Z,12.17
2019-03-23T06:29:45.546Z,12.23
2019-03-23T06:32:13.666Z,12.87
2019-03-23T06:34:41.689Z,12.50
2019-03-23T06:37:09.828Z,12.00
2019-03-23T06:39:37.989Z,13.13
2019-03-23T06:42:06.127Z,13.67
2019-03-23T06:44:34.532Z,14.90
2019-03-23T06:47:05.873Z,13.80
2019-03-23T06:49:33.981Z,13.20
2019-03-23T06:52:03.199Z,12.83
2019-03-23T06:54:31.654Z,13.93
2019-03-23T06:56:59.774Z,13.30
2019-03-23T06:59:27.965Z,13.10
2019-03-23T07:01:56.023Z,13.33
2019-03-23T07:04:24.071Z,13.00
2019-03-23T07:06:52.198Z,14.13
2019-03-23T07:09:20.262Z,12.90
2019-03-23T07:11:48.354Z,15.00
2019-03-23T07:14:19.528Z,13.90
2019-03-23T07:16:48.450Z,15.47
2019-03-23T07:19:16.528Z,15.77
2019-03-23T07:21:44.547Z,16.60
2019-03-23T07:24:12.663Z,17.33
2019-03-23T07:26:40.814Z,16.30
2019-03-23T07:29:08.873Z,16.90
2019-03-23T07:31:36.987Z,15.40
2019-03-23T07:34:06.191Z,15.20
2019-03-23T07:36:34.424Z,16.17
2019-03-23T07:39:04.301Z,16.00
2019-03-23T07:41:34.001Z,14.37
2019-03-23T07:44:02.045Z,16.13
2019-03-23T07:46:30.269Z,15.50
2019-03-23T07:48:58.800Z,16.90
2019-03-23T07:51:27.923Z,14.53
2019-03-23T07:53:57.407Z,16.27
2019-03-23T07:56:26.939Z,15.60
2019-03-23T07:58:55.217Z,15.93
2019-03-23T08:01:23.454Z,15.87
2019-03-23T08:03:51.664Z,15.90
2019-03-23T08:06:21.894Z,14.13
2019-03-23T08:08:50.249Z,15.80
2019-03-23T08:11:20.848Z,15.77
2019-03-23T08:13:49.016Z,15.60
2019-03-23T08:16:18.334Z,15.47
2019-03-23T08:18:47.652Z,15.10
2019-03-23T08:21:16.356Z,15.80
2019-03-23T08:23:45.715Z,14.87
2019-03-23T08:26:14.093Z,17.00
2019-03-23T08:28:42.691Z,15.23
2019-03-23T08:31:11.875Z,16.03
2019-03-23T08:33:41.563Z,15.57
2019-03-23T08:36:09.724Z,15.20
2019-03-23T08:38:37.830Z,16.03
2019-03-23T08:41:06.425Z,15.73
2019-03-23T08:43:36.269Z,16.70
2019-03-23T08:46:04.455Z,16.93
2019-03-23T08:48:34.200Z,17.17
2019-03-23T08:51:02.400Z,15.63
2019-03-23T08:53:30.625Z,17.27
2019-03-23T08:55:58.758Z,16.93
2019-03-23T08:58:29.810Z,17.80
2019-03-23T09:00:59.499Z,17.00
2019-03-23T09:03:27.616Z,16.20
2019-03-23T09:05:56.354Z,17.27
2019-03-23T09:08:24.905Z,17.30
2019-03-23T09:10:53.387Z,16.53
2019-03-23T09:13:23.752Z,19.57
2019-03-23T09:15:52.622Z,19.17
2019-03-23T09:18:21.121Z,19.00
2019-03-23T09:20:50.035Z,20.30
2019-03-23T09:23:18.526Z,20.53
2019-03-23T09:25:47.530Z,18.43
2019-03-23T09:28:15.987Z,19.57
2019-03-23T09:30:44.518Z,19.87
2019-03-23T09:33:12.978Z,21.37
2019-03-23T09:35:41.903Z,20.83
2019-03-23T09:38:12.179Z,21.37
2019-03-23T09:40:42.902Z,21.03
2019-03-23T09:43:11.706Z,49.33
2019-03-23T09:45:40.021Z,20.83
2019-03-23T09:48:08.301Z,20.50
2019-03-23T09:50:36.532Z,21.30
2019-03-23T09:53:04.600Z,20.53
2019-03-23T09:55:32.646Z,19.90
2019-03-23T09:58:00.740Z,21.53
2019-03-23T10:00:29.935Z,21.20
2019-03-23T10:02:58.202Z,24.33
2019-03-23T10:05:26.338Z,20.97
2019-03-23T10:07:54.424Z,21.33
2019-03-23T10:10:22.581Z,21.53
2019-03-23T10:12:50.658Z,22.33
2019-03-23T10:15:19.031Z,23.50
2019-03-23T10:17:47.445Z,22.63
2019-03-23T10:20:15.638Z,22.90
2019-03-23T10:22:43.995Z,22.90
2019-03-23T10:25:12.327Z,24.10
2019-03-23T10:27:40.547Z,21.43
2019-03-23T10:30:09.405Z,26.93
2019-03-23T10:32:37.574Z,25.90
2019-03-23T10:35:07.416Z,25.70
2019-03-23T10:37:35.689Z,25.53
2019-03-23T10:40:04.859Z,23.80
2019-03-23T10:42:33.461Z,22.60
2019-03-23T10:45:01.717Z,20.83
2019-03-23T10:47:29.863Z,23.53
2019-03-23T10:49:57.981Z,23.40
2019-03-23T10:52:26.029Z,24.70
2019-03-23T10:54:54.074Z,22.97
2019-03-23T10:57:22.068Z,22.90
2019-03-23T10:59:50.148Z,23.93
2019-03-23T11:02:18.235Z,24.70
2019-03-23T11:04:46.592Z,23.83
2019-03-23T11:07:15.475Z,23.40
2019-03-23T11:09:43.688Z,26.10
2019-03-23T11:12:11.736Z,22.70
2019-03-23T11:14:39.845Z,21.30
2019-03-23T11:17:07.866Z,21.43
2019-03-23T11:19:37.051Z,23.17
2019-03-23T11:22:05.302Z,21.07
2019-03-23T11:24:33.500Z,24.30
2019-03-23T11:27:01.519Z,26.30
2019-03-23T11:29:30.001Z,23.00
2019-03-23T11:31:58.181Z,23.40
2019-03-23T11:34:26.428Z,23.03
2019-03-23T11:36:54.865Z,23.80
2019-03-23T11:39:22.929Z,25.07
2019-03-23T11:41:51.078Z,22.37
2019-03-23T11:44:20.190Z,22.53
2019-03-23T11:46:48.374Z,24.60
2019-03-23T11:49:17.020Z,25.17
2019-03-23T11:51:45.230Z,23.87
2019-03-23T11:54:13.396Z,89.50
2019-03-23T11:56:41.470Z,25.20
2019-03-23T11:59:09.482Z,25.17
2019-03-23T12:01:37.934Z,24.80
2019-03-23T12:04:06.019Z,24.73
2019-03-23T12:06:34.100Z,25.87
2019-03-23T12:09:02.901Z,27.07
2019-03-23T12:11:32.167Z,25.50
2019-03-23T12:14:00.122Z,25.00
2019-03-23T12:16:29.391Z,24.97
2019-03-23T12:18:57.482Z,25.77
2019-03-23T12:21:25.581Z,27.00
2019-03-23T12:23:53.591Z,24.70
2019-03-23T12:26:21.625Z,24.83
2019-03-23T12:28:50.926Z,25.57
2019-03-23T12:31:39.263Z,25.17
2019-03-23T12:34:15.054Z,27.17
2019-03-23T12:38:03.397Z,27.00
2019-03-23T12:40:52.938Z,25.10
2019-03-23T12:44:05.293Z,26.53
2019-03-23T12:47:01.133Z,25.93
2019-03-23T12:49:38.047Z,28.80
2019-03-23T12:52:16.927Z,29.60
2019-03-23T12:58:03.174Z,28.53
2019-03-23T13:00:49.807Z,28.93
2019-03-23T13:04:23.870Z,29.77
2019-03-23T13:07:14.214Z,31.00
2019-03-23T13:10:32.571Z,30.70
2019-03-23T13:13:00.602Z,27.17
2019-03-23T13:15:28.678Z,30.00
2019-03-23T13:17:56.682Z,26.77
2019-03-23T13:20:24.793Z,26.53
2019-03-23T13:22:53.011Z,26.83
2019-03-23T13:25:21.090Z,27.43
2019-03-23T13:27:49.047Z,26.97
2019-03-23T13:30:17.171Z,28.23
2019-03-23T13:32:45.327Z,29.87
2019-03-23T13:35:13.298Z,27.60
2019-03-23T13:37:41.345Z,27.97
2019-03-23T13:40:09.800Z,27.60
2019-03-23T13:42:37.815Z,27.83
2019-03-23T13:45:06.496Z,29.40
2019-03-23T13:47:35.800Z,28.67
2019-03-23T13:50:04.770Z,28.97
2019-03-23T13:52:32.841Z,29.63
2019-03-23T13:55:00.922Z,29.47
2019-03-23T13:57:29.104Z,27.27
2019-03-23T13:59:57.315Z,28.30
2019-03-23T14:02:25.394Z,27.20
2019-03-23T14:04:53.455Z,28.43
2019-03-23T14:07:21.446Z,28.30
2019-03-23T14:09:49.489Z,27.47
2019-03-23T14:12:17.474Z,26.80
2019-03-23T14:14:45.466Z,25.73
2019-03-23T14:17:13.457Z,27.97
2019-03-23T14:19:41.481Z,26.80
2019-03-23T14:22:09.484Z,28.30
2019-03-23T14:24:37.566Z,37.33
2019-03-23T14:27:05.865Z,28.60
2019-03-23T14:29:33.828Z,28.07
2019-03-23T14:32:02.093Z,26.43
2019-03-23T14:34:30.121Z,26.30
2019-03-23T14:36:58.277Z,28.27
2019-03-23T14:39:27.383Z,26.87
2019-03-23T14:42:04.406Z,25.80
2019-03-23T14:44:25.350Z,26.40
2019-03-23T14:46:53.426Z,27.20
2019-03-23T14:49:21.452Z,27.10
2019-03-23T14:51:49.631Z,25.60
2019-03-23T14:54:17.661Z,24.40
2019-03-23T14:56:45.633Z,26.27
2019-03-23T14:59:13.897Z,23.87
2019-03-23T15:01:42.397Z,25.10
2019-03-23T15:04:10.863Z,24.87
2019-03-23T15:06:38.967Z,26.73
2019-03-23T15:09:07.265Z,24.63
2019-03-23T15:11:35.589Z,27.03
2019-03-23T15:14:04.235Z,25.17
2019-03-23T15:16:32.398Z,25.80
2019-03-23T15:19:01.008Z,25.97
2019-03-23T15:21:29.388Z,27.97
2019-03-23T15:23:57.950Z,27.33
2019-03-23T15:26:25.970Z,27.40
2019-03-23T15:28:54.067Z,27.30
2019-03-23T15:31:22.556Z,28.00
2019-03-23T15:33:50.782Z,30.00
2019-03-23T15:36:18.786Z,28.27
2019-03-23T15:38:46.739Z,27.20
2019-03-23T15:41:14.794Z,29.00
2019-03-23T15:43:42.936Z,26.40
2019-03-23T15:46:11.001Z,28.73
2019-03-23T15:48:39.043Z,26.30
2019-03-23T15:51:07.172Z,27.80
2019-03-23T15:53:35.326Z,27.30
2019-03-23T15:56:03.482Z,27.60
2019-03-23T15:58:31.875Z,26.90
2019-03-23T16:01:00.158Z,27.10
2019-03-23T16:03:28.307Z,27.10
2019-03-23T16:05:56.449Z,26.87
2019-03-23T16:08:24.477Z,27.90
2019-03-23T16:10:52.578Z,26.20
2019-03-23T16:13:21.468Z,26.90
2019-03-23T16:15:49.449Z,26.23
2019-03-23T16:18:17.594Z,26.30
2019-03-23T16:20:45.676Z,28.47
2019-03-23T16:23:13.769Z,29.27
2019-03-23T16:25:42.060Z,26.60
2019-03-23T16:28:10.100Z,25.87
2019-03-23T16:30:38.181Z,28.10
2019-03-23T16:33:06.347Z,26.10
2019-03-23T16:35:34.460Z,25.27
2019-03-23T16:38:02.597Z,26.77
2019-03-23T16:40:30.651Z,26.30
2019-03-23T16:42:58.744Z,27.13
2019-03-23T16:45:27.891Z,27.37
2019-03-23T16:47:56.140Z,28.27
2019-03-23T16:50:24.185Z,27.03
2019-03-23T16:52:52.240Z,29.83
2019-03-23T16:55:20.348Z,27.60
2019-03-23T16:57:51.268Z,25.63
2019-03-23T17:00:33.924Z,25.17
2019-03-23T17:03:02.346Z,29.03
2019-03-23T17:05:30.535Z,28.07
2019-03-23T17:07:58.847Z,26.80
2019-03-23T17:10:28.176Z,26.60
2019-03-23T17:12:56.426Z,28.80
2019-03-23T17:15:24.537Z,25.93
2019-03-23T17:17:52.736Z,26.73
2019-03-23T17:20:20.882Z,27.50
2019-03-23T17:22:48.911Z,24.40
2019-03-23T17:25:17.042Z,28.30
2019-03-23T17:27:45.280Z,26.20
2019-03-23T17:30:13.894Z,27.37
2019-03-23T17:32:42.086Z,28.90
2019-03-23T17:35:10.445Z,25.27
2019-03-23T17:37:38.477Z,26.23
2019-03-23T17:40:06.921Z,30.27
2019-03-23T17:42:35.140Z,28.13
2019-03-23T17:45:03.332Z,26.70
2019-03-23T17:47:39.031Z,25.30
2019-03-23T17:50:08.750Z,24.77
2019-03-23T17:52:40.701Z,24.40
2019-03-23T17:55:09.420Z,23.90
2019-03-23T17:57:37.424Z,24.07
2019-03-23T18:00:06.115Z,23.60
2019-03-23T18:02:34.331Z,27.03
2019-03-23T18:05:02.445Z,24.20
2019-03-23T18:07:31.745Z,27.60
2019-03-23T18:09:59.921Z,26.23
2019-03-23T18:12:28.001Z,25.47
2019-03-23T18:14:56.167Z,26.67
2019-03-23T18:17:24.253Z,24.57
2019-03-23T18:19:52.352Z,26.10
2019-03-23T18:22:20.526Z,25.90
2019-03-23T18:24:48.551Z,26.60
2019-03-23T18:27:16.721Z,28.00
2019-03-23T18:29:44.738Z,26.33
2019-03-23T18:32:12.909Z,26.73
2019-03-23T18:34:40.943Z,30.37
2019-03-23T18:37:09.935Z,26.60
2019-03-23T18:39:38.120Z,30.00
2019-03-23T18:42:06.282Z,27.10
2019-03-23T18:44:35.497Z,30.53
2019-03-23T18:47:05.988Z,26.40
2019-03-23T18:49:34.707Z,30.37
2019-03-23T18:52:03.363Z,29.23
2019-03-23T18:54:32.098Z,31.83
2019-03-23T18:57:02.287Z,30.10
2019-03-23T18:59:30.749Z,29.30
2019-03-23T19:01:58.936Z,30.10
2019-03-23T19:04:27.838Z,27.27
2019-03-23T19:06:56.413Z,28.97
2019-03-23T19:09:25.234Z,26.43
2019-03-23T19:11:53.477Z,28.13
2019-03-23T19:14:21.870Z,27.67
2019-03-23T19:16:50.556Z,28.53
2019-03-23T19:19:19.307Z,26.97
2019-03-23T19:21:47.675Z,26.00
2019-03-23T19:24:16.029Z,25.90
2019-03-23T19:26:44.181Z,25.27
2019-03-23T19:29:12.687Z,25.27
2019-03-23T19:31:41.252Z,25.90
2019-03-23T19:34:09.722Z,25.90
2019-03-23T19:36:40.148Z,28.90
2019-03-23T19:39:09.259Z,28.40
2019-03-23T19:41:37.330Z,33.17
2019-03-23T19:44:05.483Z,28.53
2019-03-23T19:46:34.152Z,29.90
2019-03-23T19:49:02.270Z,32.27
2019-03-23T19:51:33.530Z,31.67
2019-03-23T19:54:03.739Z,28.97
2019-03-23T19:56:33.138Z,33.20
2019-03-23T19:59:02.037Z,31.40
2019-03-23T20:01:32.602Z,33.03
2019-03-23T20:04:02.066Z,31.63
2019-03-23T20:06:30.244Z,34.43
2019-03-23T20:08:58.392Z,32.97
2019-03-23T20:11:26.680Z,33.10
2019-03-23T20:13:58.794Z,32.50
2019-03-23T20:16:24.809Z,30.80
2019-03-23T20:18:52.827Z,29.50
2019-03-23T20:21:20.848Z,26.90
2019-03-23T20:23:51.272Z,28.77
2019-03-23T20:26:19.802Z,28.47
2019-03-23T20:28:48.010Z,27.10
2019-03-23T20:31:16.205Z,27.03
2019-03-23T20:33:44.409Z,27.97
2019-03-23T20:36:12.592Z,27.90
2019-03-23T20:38:40.853Z,28.60
2019-03-23T20:41:08.972Z,27.17
2019-03-23T20:43:37.029Z,26.83
2019-03-23T20:46:05.114Z,23.97
2019-03-23T20:48:33.653Z,25.83
2019-03-23T20:51:02.086Z,24.20
2019-03-23T20:53:31.559Z,24.07
2019-03-23T20:55:59.797Z,24.40
2019-03-23T20:58:28.336Z,26.00
2019-03-23T21:00:56.467Z,27.80
2019-03-23T21:03:24.566Z,26.77
2019-03-23T21:05:52.687Z,27.47
2019-03-23T21:08:21.821Z,23.87
2019-03-23T21:10:50.019Z,25.37
2019-03-23T21:13:18.132Z,27.20
2019-03-23T21:15:46.183Z,28.40
2019-03-23T21:18:14.282Z,26.90
2019-03-23T21:20:42.541Z,26.30
2019-03-23T21:23:10.706Z,23.27
2019-03-23T21:25:38.771Z,25.07
2019-03-23T21:28:06.904Z,26.77
2019-03-23T21:30:35.108Z,26.20
2019-03-23T21:33:04.360Z,24.03
2019-03-23T21:35:32.577Z,25.37
2019-03-23T21:38:01.980Z,26.47
2019-03-23T21:40:30.194Z,25.90
2019-03-23T21:42:58.344Z,26.73
2019-03-23T21:45:26.375Z,25.83
2019-03-23T21:47:54.765Z,24.07
2019-03-23T21:50:22.895Z,23.83
2019-03-23T21:52:51.224Z,25.63
2019-03-23T21:55:19.522Z,26.73
2019-03-23T21:57:47.917Z,25.83
2019-03-23T22:00:30.415Z,27.43
2019-03-23T22:02:58.513Z,25.37
2019-03-23T22:05:26.973Z,23.80
2019-03-23T22:07:55.301Z,26.33
2019-03-23T22:10:23.479Z,27.30
2019-03-23T22:12:51.747Z,26.17
2019-03-23T22:15:20.056Z,27.77
2019-03-23T22:17:48.686Z,26.37
2019-03-23T22:20:17.638Z,25.63
2019-03-23T22:22:45.863Z,27.37
2019-03-23T22:25:14.103Z,26.37
2019-03-23T22:27:42.307Z,28.37
2019-03-23T22:30:11.254Z,28.20
2019-03-23T22:32:39.324Z,29.70
2019-03-23T22:35:08.176Z,26.33
2019-03-23T22:37:36.301Z,28.20
2019-03-23T22:40:06.616Z,28.27
2019-03-23T22:42:34.774Z,26.30
2019-03-23T22:45:03.062Z,27.70
2019-03-23T22:47:31.753Z,28.30
2019-03-23T22:50:00.010Z,27.67
2019-03-23T22:52:28.147Z,24.70
2019-03-23T22:54:56.253Z,27.80
2019-03-23T22:57:24.320Z,25.53
2019-03-23T22:59:52.393Z,27.57
2019-03-23T23:02:20.356Z,26.60
2019-03-23T23:04:48.455Z,26.10
2019-03-23T23:07:16.535Z,27.57
2019-03-23T23:09:44.570Z,25.90
2019-03-23T23:12:12.630Z,26.90
2019-03-23T23:14:42.870Z,28.97
2019-03-23T23:17:10.970Z,24.80
2019-03-23T23:19:38.996Z,23.53
2019-03-23T23:22:07.031Z,30.60
2019-03-23T23:24:35.086Z,31.07
2019-03-23T23:27:03.217Z,31.07
2019-03-23T23:29:31.290Z,26.23
2019-03-23T23:31:59.667Z,27.37
2019-03-23T23:34:27.858Z,29.27
2019-03-23T23:36:57.187Z,25.80
2019-03-23T23:39:25.385Z,26.10
2019-03-23T23:41:53.422Z,27.17
2019-03-23T23:44:22.064Z,25.70
2019-03-23T23:46:51.653Z,28.20
2019-03-23T23:49:21.890Z,29.13
2019-03-23T23:51:51.674Z,25.77
2019-03-23T23:54:21.727Z,28.03
2019-03-23T23:56:51.938Z,25.60
2019-03-23T23:59:21.937Z,27.60
